CFG3FA LEPA-EDLW
Flight info
| Callsign | CFG3FA |
|---|---|
| Flight time | 1h 53m |
| Altitude | 34000 |
| Route | MEROS N853 LUMAS DCT MAXIR DCT LUSOL DCT BODRU DCT OKTET DCT IRMAR DCT KINES DCT VANAS DCT MOBLO DCT UBIMA DCT GILIR DCT PENDU DCT IXILU DCT EPL/N0446F320 DCT ROUSY DCT DIK/N0449F350 T856 DEPOK/N0397F230 T856 AFNAF M170 ADEMI ADEMI2A |
| Aircraft | A321/M-SDE2E3FGHIJ1RWXYZ/LB1 |
Departure
| Time | 2026-05-07 11:04 |
|---|---|
| Airport | Palma de Mallorca Airport (LEPA) |
Arrival
| Time | 2026-05-07 12:58 |
|---|---|
| Airport | Dortmund Airport (EDLW) |
| Time | Latitude | Longitude | Altitude | Speed | Heading |
|---|---|---|---|---|---|
| 2026-05-07 10:28 | 39.55091 | 2.73619 | 39 ft | 0 kts | 189° |
| 2026-05-07 10:54 | 39.55092 | 2.73619 | 38 ft | 2 kts | 189° |
| 2026-05-07 10:54 | 39.55111 | 2.73623 | 37 ft | 4 kts | 178° |
| 2026-05-07 10:54 | 39.55137 | 2.73615 | 37 ft | 4 kts | 150° |
| 2026-05-07 10:54 | 39.55158 | 2.73597 | 38 ft | 4 kts | 121° |
| 2026-05-07 10:55 | 39.55162 | 2.73566 | 38 ft | 4 kts | 72° |
| 2026-05-07 10:55 | 39.55151 | 2.73537 | 36 ft | 4 kts | 58° |
| 2026-05-07 10:55 | 39.55137 | 2.73507 | 37 ft | 4 kts | 59° |
| 2026-05-07 10:55 | 39.55134 | 2.73500 | 36 ft | 0 kts | 59° |
| 2026-05-07 10:57 | 39.55136 | 2.73505 | 36 ft | 2 kts | 58° |
| 2026-05-07 10:57 | 39.55163 | 2.73562 | 38 ft | 13 kts | 59° |
| 2026-05-07 10:58 | 39.55176 | 2.73658 | 38 ft | 10 kts | 99° |
| 2026-05-07 10:58 | 39.55168 | 2.73744 | 38 ft | 9 kts | 97° |
| 2026-05-07 10:58 | 39.55179 | 2.73821 | 38 ft | 9 kts | 77° |
| 2026-05-07 10:58 | 39.55133 | 2.73885 | 38 ft | 12 kts | 149° |
| 2026-05-07 10:59 | 39.55045 | 2.73953 | 38 ft | 17 kts | 148° |
| 2026-05-07 10:59 | 39.54938 | 2.74039 | 38 ft | 18 kts | 149° |
| 2026-05-07 10:59 | 39.54834 | 2.74121 | 38 ft | 16 kts | 150° |
| 2026-05-07 10:59 | 39.54760 | 2.74066 | 38 ft | 13 kts | 238° |
| 2026-05-07 11:00 | 39.54716 | 2.73972 | 38 ft | 13 kts | 238° |
| 2026-05-07 11:00 | 39.54667 | 2.73870 | 38 ft | 14 kts | 238° |
| 2026-05-07 11:00 | 39.54615 | 2.73761 | 38 ft | 15 kts | 238° |
| 2026-05-07 11:00 | 39.54561 | 2.73647 | 38 ft | 15 kts | 238° |
| 2026-05-07 11:01 | 39.54505 | 2.73529 | 38 ft | 16 kts | 238° |
| 2026-05-07 11:01 | 39.54444 | 2.73397 | 38 ft | 18 kts | 239° |
| 2026-05-07 11:01 | 39.54381 | 2.73263 | 38 ft | 16 kts | 238° |
| 2026-05-07 11:01 | 39.54324 | 2.73144 | 38 ft | 15 kts | 238° |
| 2026-05-07 11:02 | 39.54274 | 2.73039 | 38 ft | 13 kts | 238° |
| 2026-05-07 11:02 | 39.54230 | 2.72946 | 38 ft | 11 kts | 238° |
| 2026-05-07 11:02 | 39.54172 | 2.72925 | 38 ft | 9 kts | 147° |
| 2026-05-07 11:02 | 39.54152 | 2.72993 | 38 ft | 10 kts | 90° |
| 2026-05-07 11:03 | 39.54151 | 2.73118 | 38 ft | 11 kts | 90° |
| 2026-05-07 11:03 | 39.54140 | 2.73195 | 38 ft | 5 kts | 69° |
| 2026-05-07 11:03 | 39.54151 | 2.73216 | 38 ft | 6 kts | 58° |
| 2026-05-07 11:03 | 39.54281 | 2.73496 | 37 ft | 70 kts | 58° |
| 2026-05-07 11:04 | 39.54639 | 2.74247 | 39 ft | 123 kts | 58° |
| 2026-05-07 11:04 | 39.55164 | 2.75357 | 52 ft | 162 kts | 58° |
| 2026-05-07 11:04 | 39.55746 | 2.76576 | 721 ft | 153 kts | 59° |
| 2026-05-07 11:04 | 39.56293 | 2.77748 | 1344 ft | 153 kts | 62° |
| 2026-05-07 11:05 | 39.56851 | 2.78991 | 1643 ft | 169 kts | 62° |
| 2026-05-07 11:05 | 39.57483 | 2.80403 | 1803 ft | 192 kts | 61° |
| 2026-05-07 11:05 | 39.58177 | 2.81947 | 2193 ft | 201 kts | 61° |
| 2026-05-07 11:05 | 39.58887 | 2.83518 | 2797 ft | 202 kts | 61° |
| 2026-05-07 11:06 | 39.59602 | 2.85094 | 3451 ft | 204 kts | 62° |
| 2026-05-07 11:06 | 39.60329 | 2.86697 | 3983 ft | 209 kts | 62° |
| 2026-05-07 11:06 | 39.61072 | 2.88329 | 4549 ft | 211 kts | 62° |
| 2026-05-07 11:06 | 39.61823 | 2.89971 | 5119 ft | 212 kts | 61° |
| 2026-05-07 11:07 | 39.62585 | 2.91658 | 5521 ft | 224 kts | 62° |
| 2026-05-07 11:07 | 39.63392 | 2.93502 | 5671 ft | 247 kts | 63° |
| 2026-05-07 11:07 | 39.64262 | 2.95519 | 6085 ft | 261 kts | 63° |
| 2026-05-07 11:07 | 39.65148 | 2.97576 | 6701 ft | 267 kts | 62° |
| 2026-05-07 11:08 | 39.66066 | 2.99699 | 7322 ft | 272 kts | 62° |
| 2026-05-07 11:08 | 39.67004 | 3.01862 | 7997 ft | 276 kts | 63° |
| 2026-05-07 11:08 | 39.67953 | 3.04055 | 8637 ft | 281 kts | 62° |
| 2026-05-07 11:08 | 39.68918 | 3.06284 | 9281 ft | 286 kts | 62° |
| 2026-05-07 11:09 | 39.69901 | 3.08552 | 9908 ft | 291 kts | 62° |
| 2026-05-07 11:09 | 39.70906 | 3.10881 | 10289 ft | 305 kts | 62° |
| 2026-05-07 11:09 | 39.71978 | 3.13374 | 10427 ft | 326 kts | 63° |
| 2026-05-07 11:09 | 39.73119 | 3.16025 | 10550 ft | 347 kts | 62° |
| 2026-05-07 11:10 | 39.74322 | 3.18829 | 10756 ft | 363 kts | 62° |
| 2026-05-07 11:10 | 39.75565 | 3.21722 | 11218 ft | 370 kts | 63° |
| 2026-05-07 11:10 | 39.76831 | 3.24657 | 11780 ft | 374 kts | 61° |
| 2026-05-07 11:10 | 39.78323 | 3.27462 | 12321 ft | 381 kts | 50° |
| 2026-05-07 11:11 | 39.80066 | 3.30079 | 12887 ft | 385 kts | 50° |
| 2026-05-07 11:11 | 39.81832 | 3.32719 | 13483 ft | 389 kts | 49° |
| 2026-05-07 11:11 | 39.83621 | 3.35386 | 14012 ft | 393 kts | 49° |
| 2026-05-07 11:11 | 39.85422 | 3.38072 | 14520 ft | 396 kts | 49° |
| 2026-05-07 11:12 | 39.87238 | 3.40790 | 15019 ft | 400 kts | 50° |
| 2026-05-07 11:12 | 39.89071 | 3.43542 | 15526 ft | 403 kts | 50° |
| 2026-05-07 11:12 | 39.90910 | 3.46311 | 16015 ft | 406 kts | 50° |
| 2026-05-07 11:12 | 39.92764 | 3.49110 | 16489 ft | 410 kts | 50° |
| 2026-05-07 11:13 | 39.94631 | 3.51935 | 16968 ft | 413 kts | 50° |
| 2026-05-07 11:13 | 39.96512 | 3.54785 | 17432 ft | 417 kts | 50° |
| 2026-05-07 11:13 | 39.98409 | 3.57659 | 17900 ft | 420 kts | 49° |
| 2026-05-07 11:13 | 40.00330 | 3.60564 | 18298 ft | 425 kts | 49° |
| 2026-05-07 11:14 | 40.02271 | 3.63488 | 18669 ft | 428 kts | 49° |
| 2026-05-07 11:14 | 40.04228 | 3.66447 | 19031 ft | 432 kts | 49° |
| 2026-05-07 11:14 | 40.06199 | 3.69437 | 19389 ft | 436 kts | 49° |
| 2026-05-07 11:14 | 40.08159 | 3.72415 | 19736 ft | 440 kts | 49° |
| 2026-05-07 11:15 | 40.10160 | 3.75461 | 20086 ft | 444 kts | 49° |
| 2026-05-07 11:15 | 40.12181 | 3.78537 | 20425 ft | 448 kts | 49° |
| 2026-05-07 11:15 | 40.14222 | 3.81637 | 20766 ft | 452 kts | 49° |
| 2026-05-07 11:15 | 40.16283 | 3.84768 | 21120 ft | 455 kts | 49° |
| 2026-05-07 11:16 | 40.18349 | 3.87921 | 21463 ft | 459 kts | 49° |
| 2026-05-07 11:16 | 40.20435 | 3.91107 | 21832 ft | 462 kts | 48° |
| 2026-05-07 11:16 | 40.22533 | 3.94316 | 22186 ft | 466 kts | 48° |
| 2026-05-07 11:16 | 40.24648 | 3.97555 | 22540 ft | 469 kts | 48° |
| 2026-05-07 11:17 | 40.26775 | 4.00812 | 22875 ft | 473 kts | 48° |
| 2026-05-07 11:17 | 40.28922 | 4.04106 | 23215 ft | 477 kts | 48° |
| 2026-05-07 11:17 | 40.31079 | 4.07419 | 23539 ft | 480 kts | 48° |
| 2026-05-07 11:17 | 40.33251 | 4.10763 | 23822 ft | 483 kts | 48° |
| 2026-05-07 11:18 | 40.35437 | 4.14132 | 24092 ft | 486 kts | 48° |
| 2026-05-07 11:18 | 40.37637 | 4.17523 | 24374 ft | 489 kts | 48° |
| 2026-05-07 11:18 | 40.39846 | 4.20933 | 24624 ft | 492 kts | 48° |
| 2026-05-07 11:18 | 40.42066 | 4.24373 | 24965 ft | 494 kts | 48° |
| 2026-05-07 11:19 | 40.44291 | 4.27825 | 25260 ft | 496 kts | 48° |
| 2026-05-07 11:19 | 40.46655 | 4.31118 | 25527 ft | 496 kts | 40° |
| 2026-05-07 11:19 | 40.49364 | 4.33912 | 25790 ft | 495 kts | 30° |
| 2026-05-07 11:19 | 40.52356 | 4.36146 | 26041 ft | 493 kts | 21° |
| 2026-05-07 11:20 | 40.55544 | 4.37770 | 26287 ft | 490 kts | 12° |
| 2026-05-07 11:20 | 40.58857 | 4.38783 | 26535 ft | 488 kts | 5° |
| 2026-05-07 11:20 | 40.62204 | 4.39583 | 26779 ft | 490 kts | 5° |
| 2026-05-07 11:20 | 40.65525 | 4.40373 | 27024 ft | 493 kts | 5° |
| 2026-05-07 11:21 | 40.68907 | 4.41175 | 27273 ft | 495 kts | 4° |
| 2026-05-07 11:21 | 40.72305 | 4.41985 | 27525 ft | 497 kts | 5° |
| 2026-05-07 11:21 | 40.75723 | 4.42805 | 27770 ft | 500 kts | 5° |
| 2026-05-07 11:21 | 40.79154 | 4.43632 | 28016 ft | 503 kts | 5° |
| 2026-05-07 11:22 | 40.82599 | 4.44465 | 28267 ft | 505 kts | 5° |
| 2026-05-07 11:22 | 40.86060 | 4.45302 | 28581 ft | 505 kts | 5° |
| 2026-05-07 11:22 | 40.89527 | 4.46143 | 28935 ft | 505 kts | 5° |
| 2026-05-07 11:22 | 40.92978 | 4.46980 | 29256 ft | 505 kts | 4° |
| 2026-05-07 11:23 | 40.96437 | 4.47815 | 29567 ft | 505 kts | 4° |
| 2026-05-07 11:23 | 40.99856 | 4.48640 | 29874 ft | 506 kts | 4° |
| 2026-05-07 11:23 | 41.03359 | 4.49490 | 30171 ft | 506 kts | 4° |
| 2026-05-07 11:23 | 41.06824 | 4.50333 | 30477 ft | 505 kts | 5° |
| 2026-05-07 11:24 | 41.10279 | 4.51177 | 30809 ft | 504 kts | 5° |
| 2026-05-07 11:24 | 41.13719 | 4.52017 | 31134 ft | 502 kts | 5° |
| 2026-05-07 11:24 | 41.17153 | 4.52854 | 31454 ft | 501 kts | 5° |
| 2026-05-07 11:24 | 41.20579 | 4.53688 | 31769 ft | 500 kts | 5° |
| 2026-05-07 11:25 | 41.24008 | 4.54520 | 32079 ft | 500 kts | 4° |
| 2026-05-07 11:25 | 41.27418 | 4.55349 | 32415 ft | 498 kts | 5° |
| 2026-05-07 11:25 | 41.30824 | 4.56185 | 32762 ft | 497 kts | 5° |
| 2026-05-07 11:25 | 41.34226 | 4.57024 | 33092 ft | 496 kts | 5° |
| 2026-05-07 11:26 | 41.37572 | 4.57849 | 33391 ft | 494 kts | 5° |
| 2026-05-07 11:26 | 41.40949 | 4.58681 | 33749 ft | 492 kts | 5° |
| 2026-05-07 11:26 | 41.44315 | 4.59508 | 33988 ft | 492 kts | 5° |
| 2026-05-07 11:26 | 41.47675 | 4.60334 | 34047 ft | 489 kts | 5° |
| 2026-05-07 11:27 | 41.54346 | 4.61985 | 34023 ft | 486 kts | 5° |
| 2026-05-07 11:27 | 41.60998 | 4.63624 | 34036 ft | 486 kts | 5° |
| 2026-05-07 11:28 | 41.67652 | 4.65266 | 34026 ft | 486 kts | 5° |
| 2026-05-07 11:28 | 41.74188 | 4.67687 | 34026 ft | 493 kts | 20° |
| 2026-05-07 11:29 | 41.80209 | 4.72186 | 34024 ft | 497 kts | 27° |
| 2026-05-07 11:29 | 41.86148 | 4.76960 | 34020 ft | 497 kts | 27° |
| 2026-05-07 11:30 | 41.92084 | 4.81731 | 34035 ft | 497 kts | 27° |
| 2026-05-07 11:30 | 41.98011 | 4.86515 | 34037 ft | 497 kts | 28° |
| 2026-05-07 11:31 | 42.03930 | 4.91312 | 34039 ft | 497 kts | 28° |
| 2026-05-07 11:31 | 42.09854 | 4.96119 | 34039 ft | 496 kts | 28° |
| 2026-05-07 11:32 | 42.18685 | 5.03297 | 34044 ft | 495 kts | 28° |
| 2026-05-07 11:33 | 42.24576 | 5.08102 | 34044 ft | 494 kts | 28° |
| 2026-05-07 11:33 | 42.30464 | 5.12910 | 34059 ft | 494 kts | 28° |
| 2026-05-07 11:34 | 42.36343 | 5.17727 | 34050 ft | 493 kts | 28° |
| 2026-05-07 11:34 | 42.42211 | 5.22544 | 34042 ft | 493 kts | 28° |
| 2026-05-07 11:35 | 42.48067 | 5.27364 | 34040 ft | 493 kts | 28° |
| 2026-05-07 11:35 | 42.53923 | 5.32205 | 34055 ft | 492 kts | 28° |
| 2026-05-07 11:36 | 42.59767 | 5.37039 | 34030 ft | 492 kts | 28° |
| 2026-05-07 11:36 | 42.65616 | 5.41875 | 34030 ft | 492 kts | 28° |
| 2026-05-07 11:37 | 42.71462 | 5.46723 | 34030 ft | 492 kts | 28° |
| 2026-05-07 11:37 | 42.77297 | 5.51579 | 34027 ft | 492 kts | 28° |
| 2026-05-07 11:38 | 42.83128 | 5.56441 | 34026 ft | 492 kts | 28° |
| 2026-05-07 11:38 | 42.88964 | 5.61316 | 34046 ft | 492 kts | 28° |
| 2026-05-07 11:39 | 42.94752 | 5.66160 | 34038 ft | 491 kts | 28° |
| 2026-05-07 11:39 | 43.00575 | 5.71038 | 34023 ft | 491 kts | 28° |
| 2026-05-07 11:40 | 43.06394 | 5.75932 | 34011 ft | 491 kts | 28° |
| 2026-05-07 11:40 | 43.12200 | 5.80843 | 34013 ft | 491 kts | 28° |
| 2026-05-07 11:41 | 43.18016 | 5.85766 | 34008 ft | 491 kts | 28° |
| 2026-05-07 11:41 | 43.23822 | 5.90678 | 33999 ft | 490 kts | 28° |
| 2026-05-07 11:42 | 43.29622 | 5.95592 | 34010 ft | 490 kts | 28° |
| 2026-05-07 11:42 | 43.34440 | 5.99687 | 34004 ft | 490 kts | 28° |
| 2026-05-07 11:43 | 43.41617 | 6.03854 | 33983 ft | 477 kts | 7° |
| 2026-05-07 11:43 | 43.47067 | 6.04821 | 33976 ft | 469 kts | 358° |
| 2026-05-07 11:44 | 43.53581 | 6.05460 | 33989 ft | 469 kts | 358° |
| 2026-05-07 11:44 | 43.60054 | 6.06114 | 33985 ft | 469 kts | 358° |
| 2026-05-07 11:45 | 43.66558 | 6.06772 | 33979 ft | 469 kts | 358° |
| 2026-05-07 11:45 | 43.73069 | 6.07433 | 33993 ft | 469 kts | 359° |
| 2026-05-07 11:46 | 43.79474 | 6.09523 | 33982 ft | 481 kts | 18° |
| 2026-05-07 11:46 | 43.85527 | 6.13579 | 33962 ft | 484 kts | 21° |
| 2026-05-07 11:47 | 43.91569 | 6.17694 | 33981 ft | 483 kts | 21° |
| 2026-05-07 11:47 | 43.97613 | 6.21795 | 33980 ft | 483 kts | 21° |
| 2026-05-07 11:48 | 44.03644 | 6.25908 | 33975 ft | 483 kts | 21° |
| 2026-05-07 11:48 | 44.09663 | 6.30046 | 33994 ft | 482 kts | 21° |
| 2026-05-07 11:49 | 44.15631 | 6.34168 | 33983 ft | 481 kts | 21° |
| 2026-05-07 11:49 | 44.21641 | 6.38315 | 33978 ft | 481 kts | 21° |
| 2026-05-07 11:50 | 44.27644 | 6.42456 | 33994 ft | 481 kts | 21° |
| 2026-05-07 11:50 | 44.33637 | 6.46605 | 33983 ft | 481 kts | 21° |
| 2026-05-07 11:51 | 44.39625 | 6.50765 | 33968 ft | 481 kts | 21° |
| 2026-05-07 11:51 | 44.45615 | 6.54930 | 33990 ft | 480 kts | 20° |
| 2026-05-07 11:52 | 44.51586 | 6.59102 | 33986 ft | 480 kts | 21° |
| 2026-05-07 11:52 | 44.57562 | 6.63275 | 33979 ft | 479 kts | 20° |
| 2026-05-07 11:53 | 44.63525 | 6.67441 | 33973 ft | 479 kts | 21° |
| 2026-05-07 11:53 | 44.69481 | 6.71620 | 33974 ft | 479 kts | 21° |
| 2026-05-07 11:54 | 44.75440 | 6.75808 | 33957 ft | 476 kts | 18° |
| 2026-05-07 11:54 | 44.81679 | 6.78391 | 33984 ft | 461 kts | 0° |
| 2026-05-07 11:55 | 44.87934 | 6.78510 | 33981 ft | 449 kts | 350° |
| 2026-05-07 11:55 | 44.94184 | 6.78086 | 33968 ft | 449 kts | 350° |
| 2026-05-07 11:56 | 45.00429 | 6.77697 | 33983 ft | 449 kts | 351° |
| 2026-05-07 11:56 | 45.06682 | 6.77300 | 33987 ft | 450 kts | 351° |
| 2026-05-07 11:57 | 45.12928 | 6.76883 | 33992 ft | 450 kts | 351° |
| 2026-05-07 11:57 | 45.19173 | 6.76456 | 34020 ft | 449 kts | 351° |
| 2026-05-07 11:58 | 45.25419 | 6.76040 | 34013 ft | 448 kts | 351° |
| 2026-05-07 11:58 | 45.31647 | 6.75626 | 34007 ft | 448 kts | 351° |
| 2026-05-07 11:59 | 45.37873 | 6.75208 | 34004 ft | 448 kts | 351° |
| 2026-05-07 11:59 | 45.44105 | 6.74794 | 34021 ft | 448 kts | 351° |
| 2026-05-07 12:00 | 45.50317 | 6.74379 | 34016 ft | 447 kts | 351° |
| 2026-05-07 12:00 | 45.56489 | 6.73955 | 34010 ft | 446 kts | 351° |
| 2026-05-07 12:01 | 45.62690 | 6.73522 | 34039 ft | 445 kts | 352° |
| 2026-05-07 12:01 | 45.68877 | 6.73104 | 34017 ft | 444 kts | 351° |
| 2026-05-07 12:02 | 45.75039 | 6.72687 | 34020 ft | 444 kts | 351° |
| 2026-05-07 12:02 | 45.81217 | 6.72258 | 34041 ft | 444 kts | 352° |
| 2026-05-07 12:03 | 45.87392 | 6.71832 | 34028 ft | 445 kts | 352° |
| 2026-05-07 12:03 | 45.93536 | 6.71194 | 34004 ft | 437 kts | 343° |
| 2026-05-07 12:04 | 45.99497 | 6.69553 | 34022 ft | 436 kts | 344° |
| 2026-05-07 12:04 | 46.05458 | 6.67905 | 34022 ft | 436 kts | 343° |
| 2026-05-07 12:05 | 46.11415 | 6.66255 | 34017 ft | 436 kts | 344° |
| 2026-05-07 12:05 | 46.17383 | 6.64633 | 34015 ft | 436 kts | 344° |
| 2026-05-07 12:06 | 46.23355 | 6.63053 | 34029 ft | 436 kts | 345° |
| 2026-05-07 12:06 | 46.29289 | 6.61472 | 34006 ft | 436 kts | 345° |
| 2026-05-07 12:07 | 46.35305 | 6.59865 | 34014 ft | 437 kts | 345° |
| 2026-05-07 12:07 | 46.41242 | 6.58275 | 34017 ft | 437 kts | 345° |
| 2026-05-07 12:08 | 46.47218 | 6.56665 | 34007 ft | 437 kts | 345° |
| 2026-05-07 12:08 | 46.53205 | 6.55054 | 34007 ft | 438 kts | 345° |
| 2026-05-07 12:09 | 46.59195 | 6.53432 | 34009 ft | 438 kts | 345° |
| 2026-05-07 12:09 | 46.65183 | 6.51810 | 34010 ft | 438 kts | 345° |
| 2026-05-07 12:10 | 46.71181 | 6.50187 | 34007 ft | 438 kts | 345° |
| 2026-05-07 12:10 | 46.77163 | 6.48548 | 34018 ft | 437 kts | 345° |
| 2026-05-07 12:11 | 46.83154 | 6.46915 | 34037 ft | 438 kts | 345° |
| 2026-05-07 12:11 | 46.89104 | 6.45291 | 34031 ft | 438 kts | 345° |
| 2026-05-07 12:12 | 46.95098 | 6.43659 | 34026 ft | 438 kts | 345° |
| 2026-05-07 12:12 | 47.01087 | 6.42018 | 34042 ft | 438 kts | 345° |
| 2026-05-07 12:13 | 47.07085 | 6.40365 | 34039 ft | 438 kts | 346° |
| 2026-05-07 12:13 | 47.13085 | 6.38716 | 34041 ft | 439 kts | 346° |
| 2026-05-07 12:14 | 47.19095 | 6.37061 | 34041 ft | 439 kts | 345° |
| 2026-05-07 12:14 | 47.25094 | 6.35391 | 34047 ft | 439 kts | 346° |
| 2026-05-07 12:15 | 47.31108 | 6.33714 | 34042 ft | 440 kts | 346° |
| 2026-05-07 12:15 | 47.37122 | 6.32046 | 34040 ft | 440 kts | 346° |
| 2026-05-07 12:16 | 47.43145 | 6.30373 | 34056 ft | 440 kts | 346° |
| 2026-05-07 12:16 | 47.49135 | 6.28705 | 34045 ft | 440 kts | 346° |
| 2026-05-07 12:17 | 47.55151 | 6.27007 | 34046 ft | 440 kts | 346° |
| 2026-05-07 12:17 | 47.61168 | 6.25312 | 34051 ft | 440 kts | 346° |
| 2026-05-07 12:18 | 47.67176 | 6.23628 | 34059 ft | 439 kts | 346° |
| 2026-05-07 12:18 | 47.73183 | 6.21934 | 34051 ft | 439 kts | 346° |
| 2026-05-07 12:19 | 47.79190 | 6.20237 | 34047 ft | 439 kts | 347° |
| 2026-05-07 12:19 | 47.85216 | 6.18621 | 34058 ft | 440 kts | 347° |
| 2026-05-07 12:20 | 47.91210 | 6.17041 | 34052 ft | 440 kts | 347° |
| 2026-05-07 12:20 | 47.97242 | 6.15419 | 34050 ft | 440 kts | 347° |
| 2026-05-07 12:21 | 48.03260 | 6.13770 | 34043 ft | 440 kts | 347° |
| 2026-05-07 12:21 | 48.09288 | 6.12111 | 34052 ft | 440 kts | 347° |
| 2026-05-07 12:22 | 48.15318 | 6.10456 | 34049 ft | 440 kts | 347° |
| 2026-05-07 12:22 | 48.21352 | 6.08807 | 34049 ft | 441 kts | 347° |
| 2026-05-07 12:23 | 48.27396 | 6.07159 | 34051 ft | 441 kts | 347° |
| 2026-05-07 12:23 | 48.33482 | 6.06023 | 34059 ft | 444 kts | 359° |
| 2026-05-07 12:24 | 48.39622 | 6.06290 | 34056 ft | 444 kts | 360° |
| 2026-05-07 12:24 | 48.45798 | 6.06579 | 34053 ft | 444 kts | 360° |
| 2026-05-07 12:25 | 48.51978 | 6.06879 | 34062 ft | 444 kts | 360° |
| 2026-05-07 12:25 | 48.58168 | 6.07185 | 34058 ft | 444 kts | 360° |
| 2026-05-07 12:26 | 48.64344 | 6.07480 | 34068 ft | 444 kts | 360° |
| 2026-05-07 12:26 | 48.70505 | 6.07762 | 34069 ft | 443 kts | 360° |
| 2026-05-07 12:27 | 48.76668 | 6.08049 | 34067 ft | 442 kts | 360° |
| 2026-05-07 12:27 | 48.82815 | 6.08340 | 34059 ft | 442 kts | 360° |
| 2026-05-07 12:28 | 48.88966 | 6.08647 | 34052 ft | 441 kts | 360° |
| 2026-05-07 12:28 | 48.94071 | 6.08894 | 34063 ft | 441 kts | 360° |
| 2026-05-07 12:29 | 49.01207 | 6.09235 | 34062 ft | 441 kts | 360° |
| 2026-05-07 12:29 | 49.07341 | 6.09524 | 34063 ft | 441 kts | 360° |
| 2026-05-07 12:30 | 49.12487 | 6.09771 | 34054 ft | 441 kts | 360° |
| 2026-05-07 12:30 | 49.18587 | 6.10070 | 34063 ft | 441 kts | 0° |
| 2026-05-07 12:31 | 49.24716 | 6.10366 | 34057 ft | 441 kts | 0° |
| 2026-05-07 12:31 | 49.30850 | 6.10671 | 34057 ft | 441 kts | 0° |
| 2026-05-07 12:32 | 49.36989 | 6.10967 | 34067 ft | 441 kts | 0° |
| 2026-05-07 12:32 | 49.43127 | 6.11263 | 34067 ft | 441 kts | 0° |
| 2026-05-07 12:33 | 49.52294 | 6.12094 | 34055 ft | 442 kts | 13° |
| 2026-05-07 12:33 | 49.58178 | 6.14918 | 34052 ft | 443 kts | 16° |
| 2026-05-07 12:34 | 49.64029 | 6.17861 | 34060 ft | 443 kts | 17° |
| 2026-05-07 12:34 | 49.69882 | 6.20829 | 34057 ft | 443 kts | 17° |
| 2026-05-07 12:35 | 49.75740 | 6.23787 | 34056 ft | 443 kts | 16° |
| 2026-05-07 12:35 | 49.81608 | 6.26745 | 34055 ft | 443 kts | 16° |
| 2026-05-07 12:36 | 49.87484 | 6.29676 | 34055 ft | 443 kts | 16° |
| 2026-05-07 12:36 | 49.90426 | 6.31114 | 33835 ft | 443 kts | 15° |
| 2026-05-07 12:36 | 49.93371 | 6.32542 | 33550 ft | 443 kts | 15° |
| 2026-05-07 12:37 | 49.96309 | 6.33967 | 33120 ft | 444 kts | 16° |
| 2026-05-07 12:37 | 49.99243 | 6.35394 | 32165 ft | 450 kts | 16° |
| 2026-05-07 12:37 | 50.02283 | 6.36879 | 31272 ft | 454 kts | 16° |
| 2026-05-07 12:37 | 50.05268 | 6.38340 | 30442 ft | 457 kts | 16° |
| 2026-05-07 12:38 | 50.08322 | 6.39841 | 29337 ft | 463 kts | 16° |
| 2026-05-07 12:38 | 50.11408 | 6.41361 | 28302 ft | 467 kts | 16° |
| 2026-05-07 12:38 | 50.14486 | 6.42878 | 27730 ft | 460 kts | 16° |
| 2026-05-07 12:38 | 50.17526 | 6.44382 | 27079 ft | 456 kts | 16° |
| 2026-05-07 12:39 | 50.20532 | 6.45872 | 26445 ft | 452 kts | 16° |
| 2026-05-07 12:39 | 50.23521 | 6.47351 | 25818 ft | 448 kts | 16° |
| 2026-05-07 12:39 | 50.26476 | 6.48814 | 25209 ft | 444 kts | 16° |
| 2026-05-07 12:39 | 50.29409 | 6.50272 | 24600 ft | 441 kts | 17° |
| 2026-05-07 12:40 | 50.32319 | 6.51724 | 24002 ft | 438 kts | 17° |
| 2026-05-07 12:40 | 50.35218 | 6.53169 | 23383 ft | 435 kts | 16° |
| 2026-05-07 12:40 | 50.38085 | 6.54595 | 22783 ft | 430 kts | 16° |
| 2026-05-07 12:40 | 50.40922 | 6.56006 | 22237 ft | 424 kts | 16° |
| 2026-05-07 12:41 | 50.43681 | 6.57385 | 21706 ft | 418 kts | 16° |
| 2026-05-07 12:41 | 50.46427 | 6.58764 | 21203 ft | 412 kts | 17° |
| 2026-05-07 12:41 | 50.49142 | 6.60131 | 20707 ft | 406 kts | 17° |
| 2026-05-07 12:41 | 50.51817 | 6.61477 | 20245 ft | 401 kts | 17° |
| 2026-05-07 12:42 | 50.54451 | 6.62800 | 19778 ft | 395 kts | 16° |
| 2026-05-07 12:42 | 50.57053 | 6.64106 | 19335 ft | 390 kts | 16° |
| 2026-05-07 12:42 | 50.59619 | 6.65394 | 18904 ft | 385 kts | 17° |
| 2026-05-07 12:42 | 50.62155 | 6.66671 | 18473 ft | 380 kts | 16° |
| 2026-05-07 12:43 | 50.64662 | 6.67937 | 18020 ft | 376 kts | 16° |
| 2026-05-07 12:43 | 50.67142 | 6.69185 | 17592 ft | 371 kts | 17° |
| 2026-05-07 12:43 | 50.69586 | 6.70418 | 17169 ft | 367 kts | 16° |
| 2026-05-07 12:43 | 50.72011 | 6.71647 | 16744 ft | 365 kts | 17° |
| 2026-05-07 12:44 | 50.74416 | 6.72869 | 16304 ft | 362 kts | 17° |
| 2026-05-07 12:44 | 50.76805 | 6.74084 | 15866 ft | 360 kts | 17° |
| 2026-05-07 12:44 | 50.79175 | 6.75289 | 15586 ft | 352 kts | 17° |
| 2026-05-07 12:44 | 50.81462 | 6.76457 | 15483 ft | 339 kts | 16° |
| 2026-05-07 12:45 | 50.83677 | 6.77592 | 15343 ft | 330 kts | 16° |
| 2026-05-07 12:45 | 50.85835 | 6.78697 | 15190 ft | 321 kts | 17° |
| 2026-05-07 12:45 | 50.87968 | 6.79782 | 15059 ft | 324 kts | 16° |
| 2026-05-07 12:45 | 50.90117 | 6.80870 | 14910 ft | 324 kts | 16° |
| 2026-05-07 12:46 | 50.92266 | 6.81929 | 14765 ft | 323 kts | 14° |
| 2026-05-07 12:46 | 50.94428 | 6.82875 | 14624 ft | 322 kts | 13° |
| 2026-05-07 12:46 | 50.96602 | 6.83751 | 14481 ft | 321 kts | 12° |
| 2026-05-07 12:46 | 50.98739 | 6.84825 | 14084 ft | 325 kts | 24° |
| 2026-05-07 12:47 | 51.00689 | 6.86640 | 13630 ft | 326 kts | 33° |
| 2026-05-07 12:47 | 51.02487 | 6.88842 | 13202 ft | 325 kts | 38° |
| 2026-05-07 12:47 | 51.04192 | 6.91132 | 12780 ft | 323 kts | 39° |
| 2026-05-07 12:47 | 51.05906 | 6.93433 | 12366 ft | 322 kts | 38° |
| 2026-05-07 12:48 | 51.07638 | 6.95674 | 11941 ft | 320 kts | 37° |
| 2026-05-07 12:48 | 51.09391 | 6.97851 | 11532 ft | 319 kts | 36° |
| 2026-05-07 12:48 | 51.11154 | 6.99972 | 11120 ft | 317 kts | 36° |
| 2026-05-07 12:48 | 51.12925 | 7.02065 | 10717 ft | 316 kts | 36° |
| 2026-05-07 12:49 | 51.14693 | 7.04143 | 10305 ft | 315 kts | 36° |
| 2026-05-07 12:49 | 51.16459 | 7.06219 | 9883 ft | 315 kts | 36° |
| 2026-05-07 12:49 | 51.18214 | 7.08285 | 9428 ft | 314 kts | 36° |
| 2026-05-07 12:49 | 51.19965 | 7.10358 | 8998 ft | 311 kts | 36° |
| 2026-05-07 12:50 | 51.21692 | 7.12410 | 8598 ft | 308 kts | 36° |
| 2026-05-07 12:50 | 51.23403 | 7.14447 | 8199 ft | 305 kts | 36° |
| 2026-05-07 12:50 | 51.25055 | 7.16416 | 7823 ft | 303 kts | 36° |
| 2026-05-07 12:50 | 51.26765 | 7.18453 | 7419 ft | 300 kts | 36° |
| 2026-05-07 12:51 | 51.28405 | 7.20413 | 7031 ft | 297 kts | 36° |
| 2026-05-07 12:51 | 51.30015 | 7.22337 | 6632 ft | 281 kts | 36° |
| 2026-05-07 12:51 | 51.31540 | 7.24161 | 6296 ft | 267 kts | 36° |
| 2026-05-07 12:51 | 51.32968 | 7.25873 | 5952 ft | 253 kts | 36° |
| 2026-05-07 12:52 | 51.34337 | 7.27514 | 5630 ft | 240 kts | 36° |
| 2026-05-07 12:52 | 51.35636 | 7.29066 | 5364 ft | 228 kts | 35° |
| 2026-05-07 12:52 | 51.36897 | 7.30571 | 5051 ft | 224 kts | 35° |
| 2026-05-07 12:52 | 51.38132 | 7.32048 | 4740 ft | 219 kts | 35° |
| 2026-05-07 12:53 | 51.39340 | 7.33501 | 4436 ft | 216 kts | 36° |
| 2026-05-07 12:53 | 51.40534 | 7.34937 | 4130 ft | 214 kts | 36° |
| 2026-05-07 12:53 | 51.41714 | 7.36367 | 3822 ft | 212 kts | 36° |
| 2026-05-07 12:53 | 51.42891 | 7.37787 | 3554 ft | 210 kts | 36° |
| 2026-05-07 12:54 | 51.44002 | 7.39232 | 3377 ft | 202 kts | 47° |
| 2026-05-07 12:54 | 51.44728 | 7.41077 | 3216 ft | 190 kts | 58° |
| 2026-05-07 12:54 | 51.45366 | 7.42908 | 2963 ft | 185 kts | 58° |
| 2026-05-07 12:54 | 51.45993 | 7.44688 | 2715 ft | 182 kts | 58° |
| 2026-05-07 12:55 | 51.46597 | 7.46396 | 2478 ft | 169 kts | 58° |
| 2026-05-07 12:55 | 51.47143 | 7.47944 | 2267 ft | 152 kts | 57° |
| 2026-05-07 12:55 | 51.47657 | 7.49394 | 2058 ft | 147 kts | 58° |
| 2026-05-07 12:55 | 51.48157 | 7.50810 | 1823 ft | 145 kts | 57° |
| 2026-05-07 12:56 | 51.48649 | 7.52210 | 1603 ft | 145 kts | 56° |
| 2026-05-07 12:56 | 51.49166 | 7.53615 | 1372 ft | 148 kts | 57° |
| 2026-05-07 12:56 | 51.49651 | 7.55031 | 1193 ft | 144 kts | 59° |
| 2026-05-07 12:56 | 51.50153 | 7.56447 | 999 ft | 145 kts | 57° |
| 2026-05-07 12:57 | 51.50653 | 7.57853 | 812 ft | 144 kts | 59° |
| 2026-05-07 12:57 | 51.51138 | 7.59237 | 630 ft | 143 kts | 57° |
| 2026-05-07 12:57 | 51.51619 | 7.60617 | 446 ft | 141 kts | 57° |
| 2026-05-07 12:57 | 51.52041 | 7.61804 | 411 ft | 87 kts | 60° |
| 2026-05-07 12:58 | 51.52217 | 7.62310 | 415 ft | 31 kts | 60° |
| 2026-05-07 12:58 | 51.52305 | 7.62565 | 414 ft | 20 kts | 60° |
| 2026-05-07 12:58 | 51.52319 | 7.62705 | 414 ft | 11 kts | 134° |
| 2026-05-07 12:58 | 51.52248 | 7.62775 | 411 ft | 13 kts | 153° |
| 2026-05-07 12:59 | 51.52175 | 7.62735 | 410 ft | 11 kts | 234° |
| 2026-05-07 12:59 | 51.52137 | 7.62634 | 409 ft | 9 kts | 240° |
| 2026-05-07 12:59 | 51.52100 | 7.62526 | 414 ft | 13 kts | 241° |
| 2026-05-07 12:59 | 51.52051 | 7.62386 | 413 ft | 14 kts | 240° |
| 2026-05-07 13:00 | 51.52005 | 7.62256 | 413 ft | 12 kts | 240° |
| 2026-05-07 13:00 | 51.51968 | 7.62151 | 410 ft | 10 kts | 240° |
| 2026-05-07 13:00 | 51.51918 | 7.62008 | 414 ft | 19 kts | 242° |
| 2026-05-07 13:00 | 51.51841 | 7.61788 | 413 ft | 26 kts | 239° |
| 2026-05-07 13:01 | 51.51762 | 7.61563 | 423 ft | 20 kts | 240° |
| 2026-05-07 13:01 | 51.51698 | 7.61380 | 418 ft | 18 kts | 239° |
| 2026-05-07 13:01 | 51.51638 | 7.61211 | 424 ft | 17 kts | 240° |
| 2026-05-07 13:01 | 51.51584 | 7.61074 | 426 ft | 12 kts | 223° |
| 2026-05-07 13:02 | 51.51518 | 7.61062 | 424 ft | 9 kts | 156° |
| 2026-05-07 13:02 | 51.51477 | 7.61107 | 431 ft | 4 kts | 143° |
| 2026-05-07 13:02 | 51.51468 | 7.61117 | 424 ft | 0 kts | 143° |